sensor_id;sensor_type;location;lat;lon;timestamp;pressure;altitude;pressure_sealevel;temperature;humidity
84255;BME280;74400;44.692;18.998;2024-02-14T00:02:32;100298.66;;;7.72;53.11
84255;BME280;74400;44.692;18.998;2024-02-14T00:04:58;100297.19;;;7.68;53.16
84255;BME280;74400;44.692;18.998;2024-02-14T00:07:25;100302.88;;;7.56;53.76
84255;BME280;74400;44.692;18.998;2024-02-14T00:09:52;100306.63;;;7.49;53.52
84255;BME280;74400;44.692;18.998;2024-02-14T00:12:17;100316.31;;;7.42;54.46
84255;BME280;74400;44.692;18.998;2024-02-14T00:14:43;100313.50;;;7.47;53.38
84255;BME280;74400;44.692;18.998;2024-02-14T00:17:09;100317.06;;;7.44;53.76
84255;BME280;74400;44.692;18.998;2024-02-14T00:19:35;100332.59;;;7.40;53.72
84255;BME280;74400;44.692;18.998;2024-02-14T00:22:01;100326.38;;;7.26;54.21
84255;BME280;74400;44.692;18.998;2024-02-14T00:24:27;100327.16;;;7.28;54.12
84255;BME280;74400;44.692;18.998;2024-02-14T00:26:55;100332.47;;;7.24;53.67
84255;BME280;74400;44.692;18.998;2024-02-14T00:29:22;100330.28;;;7.16;53.79
84255;BME280;74400;44.692;18.998;2024-02-14T00:31:49;100338.91;;;7.14;54.51
84255;BME280;74400;44.692;18.998;2024-02-14T00:34:14;100332.94;;;7.13;54.17
84255;BME280;74400;44.692;18.998;2024-02-14T00:36:40;100337.59;;;7.05;54.38
84255;BME280;74400;44.692;18.998;2024-02-14T00:39:05;100341.44;;;6.95;54.92
84255;BME280;74400;44.692;18.998;2024-02-14T00:41:32;100338.00;;;6.96;54.93
84255;BME280;74400;44.692;18.998;2024-02-14T00:43:58;100335.03;;;7.05;54.47
84255;BME280;74400;44.692;18.998;2024-02-14T00:46:24;100346.16;;;7.04;55.32
84255;BME280;74400;44.692;18.998;2024-02-14T00:48:50;100336.84;;;7.03;54.06
84255;BME280;74400;44.692;18.998;2024-02-14T00:51:15;100347.19;;;7.00;54.07
84255;BME280;74400;44.692;18.998;2024-02-14T00:53:41;100349.00;;;6.98;54.12
84255;BME280;74400;44.692;18.998;2024-02-14T00:56:07;100348.53;;;6.88;54.54
84255;BME280;74400;44.692;18.998;2024-02-14T00:58:33;100353.91;;;6.82;55.11
84255;BME280;74400;44.692;18.998;2024-02-14T01:00:59;100356.53;;;6.81;54.74
84255;BME280;74400;44.692;18.998;2024-02-14T01:03:24;100355.63;;;6.82;55.03
84255;BME280;74400;44.692;18.998;2024-02-14T01:05:50;100345.03;;;6.91;54.86
84255;BME280;74400;44.692;18.998;2024-02-14T01:08:16;100351.19;;;7.05;54.67
84255;BME280;74400;44.692;18.998;2024-02-14T01:10:42;100348.38;;;7.12;53.96
84255;BME280;74400;44.692;18.998;2024-02-14T01:13:08;100354.06;;;7.18;54.17
84255;BME280;74400;44.692;18.998;2024-02-14T01:15:34;100349.75;;;7.19;54.18
84255;BME280;74400;44.692;18.998;2024-02-14T01:18:00;100345.19;;;7.25;53.72
84255;BME280;74400;44.692;18.998;2024-02-14T01:20:25;100350.19;;;7.28;53.84
84255;BME280;74400;44.692;18.998;2024-02-14T01:22:51;100348.66;;;7.24;53.95
84255;BME280;74400;44.692;18.998;2024-02-14T01:25:17;100346.09;;;7.24;54.61
84255;BME280;74400;44.692;18.998;2024-02-14T01:27:42;100352.06;;;7.25;55.04
84255;BME280;74400;44.692;18.998;2024-02-14T01:30:09;100345.34;;;7.22;54.18
84255;BME280;74400;44.692;18.998;2024-02-14T01:32:35;100351.97;;;7.26;54.00
84255;BME280;74400;44.692;18.998;2024-02-14T01:35:02;100354.69;;;7.23;53.90
84255;BME280;74400;44.692;18.998;2024-02-14T01:37:29;100359.59;;;7.28;54.87
84255;BME280;74400;44.692;18.998;2024-02-14T01:39:55;100354.50;;;7.28;54.43
84255;BME280;74400;44.692;18.998;2024-02-14T01:42:21;100362.34;;;7.23;53.89
84255;BME280;74400;44.692;18.998;2024-02-14T01:44:46;100359.16;;;7.18;55.00
84255;BME280;74400;44.692;18.998;2024-02-14T01:47:13;100362.00;;;7.31;54.50
84255;BME280;74400;44.692;18.998;2024-02-14T01:49:38;100355.91;;;7.33;54.43
84255;BME280;74400;44.692;18.998;2024-02-14T01:52:05;100359.25;;;7.36;54.20
84255;BME280;74400;44.692;18.998;2024-02-14T01:54:31;100351.44;;;7.39;54.00
84255;BME280;74400;44.692;18.998;2024-02-14T01:56:57;100352.81;;;7.46;53.52
84255;BME280;74400;44.692;18.998;2024-02-14T01:59:26;100353.88;;;7.42;53.82
84255;BME280;74400;44.692;18.998;2024-02-14T02:01:52;100351.91;;;7.47;53.52
84255;BME280;74400;44.692;18.998;2024-02-14T02:04:18;100362.63;;;7.55;53.32
84255;BME280;74400;44.692;18.998;2024-02-14T02:06:44;100362.38;;;7.61;52.69
84255;BME280;74400;44.692;18.998;2024-02-14T02:09:10;100359.03;;;7.59;53.32
84255;BME280;74400;44.692;18.998;2024-02-14T02:11:46;100362.13;;;7.47;54.06
84255;BME280;74400;44.692;18.998;2024-02-14T02:14:14;100360.34;;;7.49;53.98
84255;BME280;74400;44.692;18.998;2024-02-14T02:16:39;100359.56;;;7.47;53.49
84255;BME280;74400;44.692;18.998;2024-02-14T02:19:05;100367.25;;;7.47;53.28
84255;BME280;74400;44.692;18.998;2024-02-14T02:21:34;100370.13;;;7.41;53.97
84255;BME280;74400;44.692;18.998;2024-02-14T02:24:01;100369.06;;;7.45;54.55
84255;BME280;74400;44.692;18.998;2024-02-14T02:26:27;100372.94;;;7.53;53.65
84255;BME280;74400;44.692;18.998;2024-02-14T02:28:52;100370.16;;;7.58;54.26
84255;BME280;74400;44.692;18.998;2024-02-14T02:31:19;100372.53;;;7.63;53.70
84255;BME280;74400;44.692;18.998;2024-02-14T02:33:44;100370.78;;;7.63;53.24
84255;BME280;74400;44.692;18.998;2024-02-14T02:36:10;100381.09;;;7.62;53.84
84255;BME280;74400;44.692;18.998;2024-02-14T02:38:37;100378.19;;;7.69;52.98
84255;BME280;74400;44.692;18.998;2024-02-14T02:41:03;100379.22;;;7.65;53.42
84255;BME280;74400;44.692;18.998;2024-02-14T02:43:34;100388.78;;;7.62;52.76
84255;BME280;74400;44.692;18.998;2024-02-14T02:46:01;100386.31;;;7.60;53.28
84255;BME280;74400;44.692;18.998;2024-02-14T02:48:27;100394.47;;;7.49;53.47
84255;BME280;74400;44.692;18.998;2024-02-14T02:50:53;100400.53;;;7.47;53.44
84255;BME280;74400;44.692;18.998;2024-02-14T02:53:19;100398.94;;;7.44;53.31
84255;BME280;74400;44.692;18.998;2024-02-14T02:55:45;100401.44;;;7.46;53.17
84255;BME280;74400;44.692;18.998;2024-02-14T02:58:11;100416.09;;;7.42;53.40
84255;BME280;74400;44.692;18.998;2024-02-14T03:00:37;100416.72;;;7.28;54.06
84255;BME280;74400;44.692;18.998;2024-02-14T03:03:03;100409.16;;;7.25;54.34
84255;BME280;74400;44.692;18.998;2024-02-14T03:05:30;100420.94;;;7.29;54.51
84255;BME280;74400;44.692;18.998;2024-02-14T03:07:59;100420.66;;;7.36;54.75
84255;BME280;74400;44.692;18.998;2024-02-14T03:10:25;100431.03;;;7.32;53.87
84255;BME280;74400;44.692;18.998;2024-02-14T03:12:51;100427.06;;;7.25;55.09
84255;BME280;74400;44.692;18.998;2024-02-14T03:15:18;100435.50;;;7.27;53.75
84255;BME280;74400;44.692;18.998;2024-02-14T03:17:45;100434.38;;;7.35;54.56
84255;BME280;74400;44.692;18.998;2024-02-14T03:20:12;100433.19;;;7.42;53.50
84255;BME280;74400;44.692;18.998;2024-02-14T03:22:41;100440.34;;;7.33;54.15
84255;BME280;74400;44.692;18.998;2024-02-14T03:25:13;100445.53;;;7.32;54.63
84255;BME280;74400;44.692;18.998;2024-02-14T03:27:41;100454.59;;;7.39;53.74
84255;BME280;74400;44.692;18.998;2024-02-14T03:30:07;100452.88;;;7.40;53.13
84255;BME280;74400;44.692;18.998;2024-02-14T03:32:33;100458.81;;;7.40;53.72
84255;BME280;74400;44.692;18.998;2024-02-14T03:34:59;100455.44;;;7.40;53.43
84255;BME280;74400;44.692;18.998;2024-02-14T03:37:26;100459.03;;;7.36;53.67
84255;BME280;74400;44.692;18.998;2024-02-14T03:39:52;100463.13;;;7.40;54.26
84255;BME280;74400;44.692;18.998;2024-02-14T03:42:18;100470.88;;;7.38;54.09
84255;BME280;74400;44.692;18.998;2024-02-14T03:44:45;100466.56;;;7.39;53.99
84255;BME280;74400;44.692;18.998;2024-02-14T03:47:11;100476.06;;;7.37;53.48
84255;BME280;74400;44.692;18.998;2024-02-14T03:49:38;100474.41;;;7.36;54.31
84255;BME280;74400;44.692;18.998;2024-02-14T03:52:06;100474.50;;;7.32;53.92
84255;BME280;74400;44.692;18.998;2024-02-14T03:54:32;100475.31;;;7.35;54.47
84255;BME280;74400;44.692;18.998;2024-02-14T03:56:58;100476.97;;;7.36;53.49
84255;BME280;74400;44.692;18.998;2024-02-14T03:59:23;100472.53;;;7.39;53.96
84255;BME280;74400;44.692;18.998;2024-02-14T04:01:50;100479.78;;;7.29;54.57
84255;BME280;74400;44.692;18.998;2024-02-14T04:04:19;100482.41;;;7.28;53.66
84255;BME280;74400;44.692;18.998;2024-02-14T04:06:44;100485.16;;;7.23;53.66
84255;BME280;74400;44.692;18.998;2024-02-14T04:09:11;100490.97;;;7.27;54.16
84255;BME280;74400;44.692;18.998;2024-02-14T04:11:37;100484.81;;;7.31;54.24
84255;BME280;74400;44.692;18.998;2024-02-14T04:14:02;100487.44;;;7.29;54.30
84255;BME280;74400;44.692;18.998;2024-02-14T04:16:28;100501.66;;;7.37;54.43
84255;BME280;74400;44.692;18.998;2024-02-14T04:18:54;100498.69;;;7.46;53.69
84255;BME280;74400;44.692;18.998;2024-02-14T04:21:21;100496.91;;;7.48;53.56
84255;BME280;74400;44.692;18.998;2024-02-14T04:23:47;100497.28;;;7.39;53.72
84255;BME280;74400;44.692;18.998;2024-02-14T04:26:22;100502.09;;;7.26;53.40
84255;BME280;74400;44.692;18.998;2024-02-14T04:28:48;100496.34;;;7.21;53.78
84255;BME280;74400;44.692;18.998;2024-02-14T04:31:13;100492.13;;;7.20;53.94
84255;BME280;74400;44.692;18.998;2024-02-14T04:33:39;100509.19;;;7.19;53.61
84255;BME280;74400;44.692;18.998;2024-02-14T04:36:05;100512.47;;;7.23;53.98
84255;BME280;74400;44.692;18.998;2024-02-14T04:38:31;100508.94;;;7.25;54.24
84255;BME280;74400;44.692;18.998;2024-02-14T04:40:57;100510.59;;;7.26;54.06
84255;BME280;74400;44.692;18.998;2024-02-14T04:43:25;100519.06;;;7.28;53.94
84255;BME280;74400;44.692;18.998;2024-02-14T04:45:52;100513.03;;;7.29;54.90
84255;BME280;74400;44.692;18.998;2024-02-14T04:48:18;100519.16;;;7.25;53.64
84255;BME280;74400;44.692;18.998;2024-02-14T04:50:44;100520.47;;;7.15;54.39
84255;BME280;74400;44.692;18.998;2024-02-14T04:53:09;100513.97;;;7.06;54.88
84255;BME280;74400;44.692;18.998;2024-02-14T04:55:35;100515.53;;;7.11;54.55
84255;BME280;74400;44.692;18.998;2024-02-14T04:58:01;100525.88;;;7.07;55.03
84255;BME280;74400;44.692;18.998;2024-02-14T05:00:27;100526.34;;;6.97;54.45
84255;BME280;74400;44.692;18.998;2024-02-14T05:02:53;100526.91;;;7.03;54.65
84255;BME280;74400;44.692;18.998;2024-02-14T05:05:19;100535.94;;;7.12;54.42
84255;BME280;74400;44.692;18.998;2024-02-14T05:07:46;100533.88;;;7.20;53.79
84255;BME280;74400;44.692;18.998;2024-02-14T05:10:11;100536.06;;;7.29;53.31
84255;BME280;74400;44.692;18.998;2024-02-14T05:12:37;100539.63;;;7.25;54.45
84255;BME280;74400;44.692;18.998;2024-02-14T05:15:03;100541.03;;;7.12;53.99
84255;BME280;74400;44.692;18.998;2024-02-14T05:17:29;100539.50;;;7.08;53.94
84255;BME280;74400;44.692;18.998;2024-02-14T05:19:55;100542.25;;;7.03;55.12
84255;BME280;74400;44.692;18.998;2024-02-14T05:22:22;100545.41;;;7.10;54.67
84255;BME280;74400;44.692;18.998;2024-02-14T05:24:48;100541.88;;;7.13;53.78
84255;BME280;74400;44.692;18.998;2024-02-14T05:27:14;100534.94;;;6.94;54.65
84255;BME280;74400;44.692;18.998;2024-02-14T05:29:39;100539.97;;;6.75;54.25
84255;BME280;74400;44.692;18.998;2024-02-14T05:32:05;100538.09;;;6.59;55.48
84255;BME280;74400;44.692;18.998;2024-02-14T05:34:31;100545.97;;;6.53;55.82
84255;BME280;74400;44.692;18.998;2024-02-14T05:36:57;100551.16;;;6.51;56.02
84255;BME280;74400;44.692;18.998;2024-02-14T05:39:23;100546.28;;;6.45;55.63
84255;BME280;74400;44.692;18.998;2024-02-14T05:41:48;100539.63;;;6.41;55.41
84255;BME280;74400;44.692;18.998;2024-02-14T05:44:14;100556.13;;;6.32;55.82
84255;BME280;74400;44.692;18.998;2024-02-14T05:46:40;100554.72;;;6.23;56.00
84255;BME280;74400;44.692;18.998;2024-02-14T05:51:34;100559.66;;;6.06;56.41
84255;BME280;74400;44.692;18.998;2024-02-14T05:54:00;100557.41;;;5.97;57.13
84255;BME280;74400;44.692;18.998;2024-02-14T05:56:26;100564.31;;;5.95;56.82
84255;BME280;74400;44.692;18.998;2024-02-14T05:58:52;100562.03;;;5.86;57.63
84255;BME280;74400;44.692;18.998;2024-02-14T06:01:18;100566.16;;;5.90;57.18
84255;BME280;74400;44.692;18.998;2024-02-14T06:03:43;100568.44;;;5.99;57.04
84255;BME280;74400;44.692;18.998;2024-02-14T06:06:09;100565.47;;;6.10;57.65
84255;BME280;74400;44.692;18.998;2024-02-14T06:08:35;100565.38;;;6.13;57.87
84255;BME280;74400;44.692;18.998;2024-02-14T06:11:00;100573.84;;;6.13;57.45
84255;BME280;74400;44.692;18.998;2024-02-14T06:13:26;100578.84;;;5.93;58.36
84255;BME280;74400;44.692;18.998;2024-02-14T06:15:52;100579.47;;;6.00;57.54
84255;BME280;74400;44.692;18.998;2024-02-14T06:18:17;100583.63;;;6.02;57.93
84255;BME280;74400;44.692;18.998;2024-02-14T06:20:43;100587.91;;;6.02;57.83
84255;BME280;74400;44.692;18.998;2024-02-14T06:23:09;100594.88;;;5.96;57.68
84255;BME280;74400;44.692;18.998;2024-02-14T06:25:34;100601.91;;;5.90;57.63
84255;BME280;74400;44.692;18.998;2024-02-14T06:28:00;100592.22;;;6.00;57.32
84255;BME280;74400;44.692;18.998;2024-02-14T06:30:29;100596.25;;;6.05;57.72
84255;BME280;74400;44.692;18.998;2024-02-14T06:32:54;100602.44;;;6.23;56.73
84255;BME280;74400;44.692;18.998;2024-02-14T06:35:21;100610.78;;;6.28;56.63
84255;BME280;74400;44.692;18.998;2024-02-14T06:37:47;100610.16;;;6.21;56.46
84255;BME280;74400;44.692;18.998;2024-02-14T06:40:13;100612.22;;;6.12;56.50
84255;BME280;74400;44.692;18.998;2024-02-14T06:42:38;100617.00;;;6.21;57.41
84255;BME280;74400;44.692;18.998;2024-02-14T06:45:06;100617.69;;;6.24;57.37
84255;BME280;74400;44.692;18.998;2024-02-14T06:47:33;100620.16;;;6.28;57.29
84255;BME280;74400;44.692;18.998;2024-02-14T06:49:59;100619.19;;;6.30;56.30
84255;BME280;74400;44.692;18.998;2024-02-14T06:52:26;100613.59;;;6.20;57.07
84255;BME280;74400;44.692;18.998;2024-02-14T06:54:51;100625.34;;;6.24;56.92
84255;BME280;74400;44.692;18.998;2024-02-14T06:57:17;100624.31;;;6.30;56.56
84255;BME280;74400;44.692;18.998;2024-02-14T06:59:43;100623.94;;;6.41;56.79
84255;BME280;74400;44.692;18.998;2024-02-14T07:02:09;100621.97;;;6.47;56.79
84255;BME280;74400;44.692;18.998;2024-02-14T07:04:34;100617.38;;;6.57;55.88
84255;BME280;74400;44.692;18.998;2024-02-14T07:07:00;100619.56;;;6.66;55.96
84255;BME280;74400;44.692;18.998;2024-02-14T07:09:26;100624.63;;;7.12;54.15
84255;BME280;74400;44.692;18.998;2024-02-14T07:11:51;100620.09;;;8.39;51.62
84255;BME280;74400;44.692;18.998;2024-02-14T07:14:19;100620.47;;;10.08;47.23
84255;BME280;74400;44.692;18.998;2024-02-14T07:16:45;100617.53;;;12.13;41.55
84255;BME280;74400;44.692;18.998;2024-02-14T07:19:10;100623.38;;;13.90;38.18
84255;BME280;74400;44.692;18.998;2024-02-14T07:21:36;100619.75;;;15.15;35.10
84255;BME280;74400;44.692;18.998;2024-02-14T07:24:04;100627.53;;;15.61;34.21
84255;BME280;74400;44.692;18.998;2024-02-14T07:26:30;100627.47;;;15.74;33.39
84255;BME280;74400;44.692;18.998;2024-02-14T07:28:56;100641.56;;;16.60;32.00
84255;BME280;74400;44.692;18.998;2024-02-14T07:31:22;100629.69;;;17.32;30.91
84255;BME280;74400;44.692;18.998;2024-02-14T07:33:48;100632.09;;;18.27;29.05
84255;BME280;74400;44.692;18.998;2024-02-14T07:36:14;100642.03;;;17.82;29.75
84255;BME280;74400;44.692;18.998;2024-02-14T07:38:41;100636.19;;;18.20;28.97
84255;BME280;74400;44.692;18.998;2024-02-14T07:41:08;100638.19;;;18.47;28.37
84255;BME280;74400;44.692;18.998;2024-02-14T07:43:34;100636.31;;;17.88;29.48
84255;BME280;74400;44.692;18.998;2024-02-14T07:46:00;100641.25;;;18.22;28.94
84255;BME280;74400;44.692;18.998;2024-02-14T07:48:25;100637.06;;;18.40;28.77
84255;BME280;74400;44.692;18.998;2024-02-14T07:50:51;100639.88;;;17.87;29.48
84255;BME280;74400;44.692;18.998;2024-02-14T07:53:17;100640.78;;;17.76;29.31
84255;BME280;74400;44.692;18.998;2024-02-14T07:55:43;100646.72;;;17.67;30.13
84255;BME280;74400;44.692;18.998;2024-02-14T07:58:08;100650.22;;;17.98;29.50
84255;BME280;74400;44.692;18.998;2024-02-14T08:00:34;100647.59;;;18.69;28.27
84255;BME280;74400;44.692;18.998;2024-02-14T08:03:00;100652.84;;;18.98;28.00
84255;BME280;74400;44.692;18.998;2024-02-14T08:05:29;100644.38;;;18.16;28.63
84255;BME280;74400;44.692;18.998;2024-02-14T08:07:54;100650.41;;;18.16;29.13
84255;BME280;74400;44.692;18.998;2024-02-14T08:10:20;100650.31;;;18.67;28.19
84255;BME280;74400;44.692;18.998;2024-02-14T08:12:46;100645.47;;;18.53;28.68
84255;BME280;74400;44.692;18.998;2024-02-14T08:15:13;100642.53;;;18.77;28.31
84255;BME280;74400;44.692;18.998;2024-02-14T08:17:38;100652.69;;;19.00;28.47
84255;BME280;74400;44.692;18.998;2024-02-14T08:20:05;100650.19;;;19.56;26.84
84255;BME280;74400;44.692;18.998;2024-02-14T08:22:31;100643.72;;;19.70;26.92
84255;BME280;74400;44.692;18.998;2024-02-14T08:24:58;100647.16;;;20.17;26.68
84255;BME280;74400;44.692;18.998;2024-02-14T08:27:23;100640.28;;;20.16;25.91
84255;BME280;74400;44.692;18.998;2024-02-14T08:29:49;100642.06;;;19.79;26.75
84255;BME280;74400;44.692;18.998;2024-02-14T08:32:15;100640.69;;;19.74;26.53
84255;BME280;74400;44.692;18.998;2024-02-14T08:34:41;100649.75;;;20.54;25.51
84255;BME280;74400;44.692;18.998;2024-02-14T08:37:07;100641.94;;;21.26;24.48
84255;BME280;74400;44.692;18.998;2024-02-14T08:39:34;100651.72;;;20.88;25.18
84255;BME280;74400;44.692;18.998;2024-02-14T08:42:02;100640.38;;;21.85;24.26
84255;BME280;74400;44.692;18.998;2024-02-14T08:44:33;100651.66;;;22.11;23.45
84255;BME280;74400;44.692;18.998;2024-02-14T08:46:59;100646.34;;;22.29;23.84
84255;BME280;74400;44.692;18.998;2024-02-14T08:49:26;100640.88;;;22.73;22.68
84255;BME280;74400;44.692;18.998;2024-02-14T08:51:51;100629.16;;;22.01;24.23
84255;BME280;74400;44.692;18.998;2024-02-14T08:54:17;100634.75;;;21.46;24.51
84255;BME280;74400;44.692;18.998;2024-02-14T08:56:43;100637.16;;;21.65;24.27
84255;BME280;74400;44.692;18.998;2024-02-14T08:59:09;100644.59;;;22.46;23.23
84255;BME280;74400;44.692;18.998;2024-02-14T09:01:36;100642.94;;;23.20;22.19
84255;BME280;74400;44.692;18.998;2024-02-14T09:04:02;100643.47;;;22.57;22.99
84255;BME280;74400;44.692;18.998;2024-02-14T09:06:27;100632.41;;;23.36;21.88
84255;BME280;74400;44.692;18.998;2024-02-14T09:08:53;100644.22;;;22.91;23.02
84255;BME280;74400;44.692;18.998;2024-02-14T09:11:19;100627.75;;;21.80;24.55
84255;BME280;74400;44.692;18.998;2024-02-14T09:13:45;100644.81;;;20.51;26.50
84255;BME280;74400;44.692;18.998;2024-02-14T09:16:13;100653.81;;;21.02;25.50
84255;BME280;74400;44.692;18.998;2024-02-14T09:18:40;100650.25;;;21.65;24.23
84255;BME280;74400;44.692;18.998;2024-02-14T09:23:34;100642.94;;;21.51;24.76
84255;BME280;74400;44.692;18.998;2024-02-14T09:26:00;100647.97;;;21.96;23.90
84255;BME280;74400;44.692;18.998;2024-02-14T09:28:26;100644.13;;;22.51;23.10
84255;BME280;74400;44.692;18.998;2024-02-14T09:30:52;100638.69;;;22.44;23.25
84255;BME280;74400;44.692;18.998;2024-02-14T09:33:18;100642.00;;;22.54;23.38
84255;BME280;74400;44.692;18.998;2024-02-14T09:35:46;100641.94;;;23.13;22.41
84255;BME280;74400;44.692;18.998;2024-02-14T09:38:15;100636.06;;;21.50;24.50
84255;BME280;74400;44.692;18.998;2024-02-14T09:40:42;100639.38;;;21.16;24.93
84255;BME280;74400;44.692;18.998;2024-02-14T09:43:31;100645.06;;;21.47;24.82
84255;BME280;74400;44.692;18.998;2024-02-14T09:46:02;100640.38;;;21.85;23.84
84255;BME280;74400;44.692;18.998;2024-02-14T09:48:29;100636.66;;;21.44;24.72
84255;BME280;74400;44.692;18.998;2024-02-14T09:50:56;100633.72;;;20.12;26.78
84255;BME280;74400;44.692;18.998;2024-02-14T09:53:23;100632.38;;;18.34;29.04
84255;BME280;74400;44.692;18.998;2024-02-14T09:55:49;100631.19;;;16.82;31.44
84255;BME280;74400;44.692;18.998;2024-02-14T09:58:16;100627.81;;;15.34;34.46
84255;BME280;74400;44.692;18.998;2024-02-14T10:00:43;100619.38;;;14.48;36.30
84255;BME280;74400;44.692;18.998;2024-02-14T10:03:08;100620.50;;;13.16;39.00
84255;BME280;74400;44.692;18.998;2024-02-14T10:05:34;100612.88;;;13.00;39.92
84255;BME280;74400;44.692;18.998;2024-02-14T10:08:01;100616.66;;;13.09;39.79
84255;BME280;74400;44.692;18.998;2024-02-14T10:10:27;100613.34;;;13.20;39.68
84255;BME280;74400;44.692;18.998;2024-02-14T10:12:56;100606.72;;;13.03;40.36
84255;BME280;74400;44.692;18.998;2024-02-14T10:15:23;100599.69;;;12.51;41.00
84255;BME280;74400;44.692;18.998;2024-02-14T10:17:49;100607.72;;;12.46;40.99
84255;BME280;74400;44.692;18.998;2024-02-14T10:20:17;100609.19;;;12.36;41.50
84255;BME280;74400;44.692;18.998;2024-02-14T10:22:44;100598.81;;;12.38;41.84
84255;BME280;74400;44.692;18.998;2024-02-14T10:25:11;100599.44;;;12.68;41.59
84255;BME280;74400;44.692;18.998;2024-02-14T10:27:38;100596.09;;;12.81;40.99
84255;BME280;74400;44.692;18.998;2024-02-14T10:30:06;100594.41;;;12.26;41.97
84255;BME280;74400;44.692;18.998;2024-02-14T10:32:34;100601.88;;;12.02;43.04
84255;BME280;74400;44.692;18.998;2024-02-14T10:35:00;100589.63;;;11.91;42.58
84255;BME280;74400;44.692;18.998;2024-02-14T10:37:28;100597.72;;;11.85;43.85
84255;BME280;74400;44.692;18.998;2024-02-14T10:39:56;100598.53;;;12.28;41.45
84255;BME280;74400;44.692;18.998;2024-02-14T10:42:22;100599.88;;;12.62;41.76
84255;BME280;74400;44.692;18.998;2024-02-14T10:44:48;100599.88;;;12.75;41.36
84255;BME280;74400;44.692;18.998;2024-02-14T10:47:35;100599.25;;;12.44;41.04
84255;BME280;74400;44.692;18.998;2024-02-14T10:50:03;100597.13;;;12.51;40.77
84255;BME280;74400;44.692;18.998;2024-02-14T10:52:32;100593.03;;;12.61;41.13
84255;BME280;74400;44.692;18.998;2024-02-14T10:55:05;100594.91;;;12.45;41.27
84255;BME280;74400;44.692;18.998;2024-02-14T10:57:34;100585.44;;;12.45;42.05
84255;BME280;74400;44.692;18.998;2024-02-14T11:00:08;100582.88;;;12.17;42.32
84255;BME280;74400;44.692;18.998;2024-02-14T11:02:34;100576.06;;;12.16;42.19
84255;BME280;74400;44.692;18.998;2024-02-14T11:05:00;100578.72;;;12.29;41.39
84255;BME280;74400;44.692;18.998;2024-02-14T11:07:28;100580.84;;;12.22;42.50
84255;BME280;74400;44.692;18.998;2024-02-14T11:10:04;100570.19;;;12.14;42.50
84255;BME280;74400;44.692;18.998;2024-02-14T11:12:37;100581.22;;;12.16;42.13
84255;BME280;74400;44.692;18.998;2024-02-14T11:17:34;100580.06;;;12.07;42.40
84255;BME280;74400;44.692;18.998;2024-02-14T11:19:59;100572.22;;;11.95;42.32
84255;BME280;74400;44.692;18.998;2024-02-14T11:22:25;100584.44;;;11.62;42.54
84255;BME280;74400;44.692;18.998;2024-02-14T11:24:51;100580.34;;;11.44;43.12
84255;BME280;74400;44.692;18.998;2024-02-14T11:27:19;100572.28;;;11.20;42.61
84255;BME280;74400;44.692;18.998;2024-02-14T11:29:54;100582.25;;;11.26;42.56
84255;BME280;74400;44.692;18.998;2024-02-14T11:32:22;100577.63;;;11.47;42.61
84255;BME280;74400;44.692;18.998;2024-02-14T11:34:55;100583.72;;;11.75;40.21
84255;BME280;74400;44.692;18.998;2024-02-14T11:37:28;100585.94;;;11.95;39.57
84255;BME280;74400;44.692;18.998;2024-02-14T11:39:55;100581.03;;;11.62;40.59
84255;BME280;74400;44.692;18.998;2024-02-14T11:42:23;100578.13;;;11.38;42.42
84255;BME280;74400;44.692;18.998;2024-02-14T11:44:49;100576.09;;;11.29;41.94
84255;BME280;74400;44.692;18.998;2024-02-14T11:47:15;100573.34;;;11.32;41.67
84255;BME280;74400;44.692;18.998;2024-02-14T11:49:41;100584.22;;;11.65;41.45
84255;BME280;74400;44.692;18.998;2024-02-14T11:54:34;100578.50;;;12.05;40.73
84255;BME280;74400;44.692;18.998;2024-02-14T11:57:00;100578.84;;;11.84;40.82
84255;BME280;74400;44.692;18.998;2024-02-14T11:59:26;100584.53;;;11.75;41.08
84255;BME280;74400;44.692;18.998;2024-02-14T12:01:51;100575.06;;;11.76;40.79
84255;BME280;74400;44.692;18.998;2024-02-14T12:04:19;100572.94;;;11.68;40.75
84255;BME280;74400;44.692;18.998;2024-02-14T12:06:45;100575.50;;;11.68;40.09
84255;BME280;74400;44.692;18.998;2024-02-14T12:09:11;100576.91;;;11.74;40.32
84255;BME280;74400;44.692;18.998;2024-02-14T12:11:39;100568.84;;;11.94;40.65
84255;BME280;74400;44.692;18.998;2024-02-14T12:14:09;100576.47;;;11.96;40.33
84255;BME280;74400;44.692;18.998;2024-02-14T12:16:38;100568.59;;;11.69;39.92
84255;BME280;74400;44.692;18.998;2024-02-14T12:19:07;100559.06;;;11.85;39.98
84255;BME280;74400;44.692;18.998;2024-02-14T12:21:35;100566.22;;;11.80;39.15
84255;BME280;74400;44.692;18.998;2024-02-14T12:24:01;100553.91;;;11.85;39.83
84255;BME280;74400;44.692;18.998;2024-02-14T12:26:30;100563.22;;;11.87;38.99
84255;BME280;74400;44.692;18.998;2024-02-14T12:28:56;100554.81;;;11.84;38.95
84255;BME280;74400;44.692;18.998;2024-02-14T12:31:23;100549.47;;;11.73;39.29
84255;BME280;74400;44.692;18.998;2024-02-14T12:33:49;100551.13;;;11.59;38.97
84255;BME280;74400;44.692;18.998;2024-02-14T12:36:14;100542.75;;;11.70;39.73
84255;BME280;74400;44.692;18.998;2024-02-14T12:38:40;100545.94;;;11.45;40.25
84255;BME280;74400;44.692;18.998;2024-02-14T12:41:06;100548.16;;;11.37;39.76
84255;BME280;74400;44.692;18.998;2024-02-14T12:43:32;100538.88;;;11.34;38.82
84255;BME280;74400;44.692;18.998;2024-02-14T12:45:57;100540.53;;;11.50;39.81
84255;BME280;74400;44.692;18.998;2024-02-14T12:48:24;100536.75;;;11.55;40.65
84255;BME280;74400;44.692;18.998;2024-02-14T12:50:53;100538.06;;;11.62;40.75
84255;BME280;74400;44.692;18.998;2024-02-14T12:53:20;100541.19;;;11.53;39.97